sensor_id;sensor_type;location;lat;lon;timestamp;temperature;humidity
45008;DHT22;30743;52.008;5.644;2022-08-03T00:01:03;25.60;99.90
45008;DHT22;30743;52.008;5.644;2022-08-03T00:03:29;25.30;99.90
45008;DHT22;30743;52.008;5.644;2022-08-03T00:05:55;25.20;99.90
45008;DHT22;30743;52.008;5.644;2022-08-03T00:08:20;25.20;99.90
45008;DHT22;30743;52.008;5.644;2022-08-03T00:10:46;25.10;99.90
45008;DHT22;30743;52.008;5.644;2022-08-03T00:13:11;25.20;99.90
45008;DHT22;30743;52.008;5.644;2022-08-03T00:15:39;25.10;99.90
45008;DHT22;30743;52.008;5.644;2022-08-03T00:18:05;25.10;99.90
45008;DHT22;30743;52.008;5.644;2022-08-03T00:20:30;25.10;99.90
45008;DHT22;30743;52.008;5.644;2022-08-03T00:22:56;25.10;99.90
45008;DHT22;30743;52.008;5.644;2022-08-03T00:25:21;25.10;99.90
45008;DHT22;30743;52.008;5.644;2022-08-03T00:27:47;25.10;99.90
45008;DHT22;30743;52.008;5.644;2022-08-03T00:30:12;25.10;99.90
45008;DHT22;30743;52.008;5.644;2022-08-03T00:32:38;25.00;99.90
45008;DHT22;30743;52.008;5.644;2022-08-03T00:35:04;25.00;99.90
45008;DHT22;30743;52.008;5.644;2022-08-03T00:37:30;24.80;99.90
45008;DHT22;30743;52.008;5.644;2022-08-03T00:39:55;24.80;99.90
45008;DHT22;30743;52.008;5.644;2022-08-03T00:42:21;24.70;99.90
45008;DHT22;30743;52.008;5.644;2022-08-03T00:44:46;24.60;99.90
45008;DHT22;30743;52.008;5.644;2022-08-03T00:47:12;24.40;99.90
45008;DHT22;30743;52.008;5.644;2022-08-03T00:49:38;24.40;99.90
45008;DHT22;30743;52.008;5.644;2022-08-03T00:52:05;24.30;99.90
45008;DHT22;30743;52.008;5.644;2022-08-03T00:54:33;24.10;99.90
45008;DHT22;30743;52.008;5.644;2022-08-03T00:56:59;24.30;99.90
45008;DHT22;30743;52.008;5.644;2022-08-03T00:59:26;24.30;99.90
45008;DHT22;30743;52.008;5.644;2022-08-03T01:01:52;24.30;99.90
45008;DHT22;30743;52.008;5.644;2022-08-03T01:04:18;24.30;99.90
45008;DHT22;30743;52.008;5.644;2022-08-03T01:12:16;24.30;99.90
45008;DHT22;30743;52.008;5.644;2022-08-03T01:20:13;24.00;99.90
45008;DHT22;30743;52.008;5.644;2022-08-03T01:26:20;23.90;99.90
45008;DHT22;30743;52.008;5.644;2022-08-03T01:28:47;23.80;99.90
45008;DHT22;30743;52.008;5.644;2022-08-03T01:31:22;23.90;99.90
45008;DHT22;30743;52.008;5.644;2022-08-03T01:33:53;23.90;99.90
45008;DHT22;30743;52.008;5.644;2022-08-03T01:36:25;24.20;99.90
45008;DHT22;30743;52.008;5.644;2022-08-03T01:38:59;24.20;99.90
45008;DHT22;30743;52.008;5.644;2022-08-03T01:41:37;24.20;99.90
45008;DHT22;30743;52.008;5.644;2022-08-03T01:44:07;24.30;99.90
45008;DHT22;30743;52.008;5.644;2022-08-03T01:46:33;24.30;99.90
45008;DHT22;30743;52.008;5.644;2022-08-03T01:49:00;24.30;99.90
45008;DHT22;30743;52.008;5.644;2022-08-03T01:51:27;24.20;99.90
45008;DHT22;30743;52.008;5.644;2022-08-03T01:53:53;24.20;99.90
45008;DHT22;30743;52.008;5.644;2022-08-03T01:56:21;24.30;99.90
45008;DHT22;30743;52.008;5.644;2022-08-03T01:58:48;24.30;99.90
45008;DHT22;30743;52.008;5.644;2022-08-03T02:01:16;24.30;99.90
45008;DHT22;30743;52.008;5.644;2022-08-03T02:03:43;24.20;99.90
45008;DHT22;30743;52.008;5.644;2022-08-03T02:06:10;24.30;99.90
45008;DHT22;30743;52.008;5.644;2022-08-03T02:08:38;24.30;99.90
45008;DHT22;30743;52.008;5.644;2022-08-03T02:11:04;24.40;99.90
45008;DHT22;30743;52.008;5.644;2022-08-03T02:13:33;24.40;99.90
45008;DHT22;30743;52.008;5.644;2022-08-03T02:16:01;24.40;99.90
45008;DHT22;30743;52.008;5.644;2022-08-03T02:18:29;24.40;99.90
45008;DHT22;30743;52.008;5.644;2022-08-03T02:20:56;24.50;99.90
45008;DHT22;30743;52.008;5.644;2022-08-03T02:23:22;24.60;99.90
45008;DHT22;30743;52.008;5.644;2022-08-03T02:25:52;24.40;99.90
45008;DHT22;30743;52.008;5.644;2022-08-03T02:28:19;24.40;99.90
45008;DHT22;30743;52.008;5.644;2022-08-03T02:30:52;24.30;99.90
45008;DHT22;30743;52.008;5.644;2022-08-03T02:33:26;24.40;99.90
45008;DHT22;30743;52.008;5.644;2022-08-03T02:35:53;24.30;99.90
45008;DHT22;30743;52.008;5.644;2022-08-03T02:38:20;24.30;99.90
45008;DHT22;30743;52.008;5.644;2022-08-03T02:40:48;24.30;99.90
45008;DHT22;30743;52.008;5.644;2022-08-03T02:43:18;24.30;99.90
45008;DHT22;30743;52.008;5.644;2022-08-03T02:45:46;24.40;99.90
45008;DHT22;30743;52.008;5.644;2022-08-03T02:48:17;24.30;99.90
45008;DHT22;30743;52.008;5.644;2022-08-03T02:50:45;24.30;99.90
45008;DHT22;30743;52.008;5.644;2022-08-03T02:53:13;24.30;99.90
45008;DHT22;30743;52.008;5.644;2022-08-03T02:55:40;24.40;99.90
45008;DHT22;30743;52.008;5.644;2022-08-03T02:58:06;24.30;99.90
45008;DHT22;30743;52.008;5.644;2022-08-03T03:00:33;24.20;99.90
45008;DHT22;30743;52.008;5.644;2022-08-03T03:03:00;24.20;99.90
45008;DHT22;30743;52.008;5.644;2022-08-03T03:05:27;24.20;99.90
45008;DHT22;30743;52.008;5.644;2022-08-03T03:07:54;24.20;99.90
45008;DHT22;30743;52.008;5.644;2022-08-03T03:10:23;24.10;99.90
45008;DHT22;30743;52.008;5.644;2022-08-03T03:12:52;24.00;99.90
45008;DHT22;30743;52.008;5.644;2022-08-03T03:15:19;23.90;99.90
45008;DHT22;30743;52.008;5.644;2022-08-03T03:17:47;23.80;99.90
45008;DHT22;30743;52.008;5.644;2022-08-03T03:20:14;23.60;99.90
45008;DHT22;30743;52.008;5.644;2022-08-03T03:22:40;23.50;99.90
45008;DHT22;30743;52.008;5.644;2022-08-03T03:25:06;23.70;99.90
45008;DHT22;30743;52.008;5.644;2022-08-03T03:27:32;23.60;99.90
45008;DHT22;30743;52.008;5.644;2022-08-03T03:29:58;23.60;99.90
45008;DHT22;30743;52.008;5.644;2022-08-03T03:32:26;23.50;99.90
45008;DHT22;30743;52.008;5.644;2022-08-03T03:34:54;23.60;99.90
45008;DHT22;30743;52.008;5.644;2022-08-03T03:37:20;23.60;99.90
45008;DHT22;30743;52.008;5.644;2022-08-03T03:39:45;23.40;99.90
45008;DHT22;30743;52.008;5.644;2022-08-03T03:42:11;23.40;99.90
45008;DHT22;30743;52.008;5.644;2022-08-03T03:44:37;23.40;99.90
45008;DHT22;30743;52.008;5.644;2022-08-03T03:47:02;23.40;99.90
45008;DHT22;30743;52.008;5.644;2022-08-03T03:49:30;23.50;99.90
45008;DHT22;30743;52.008;5.644;2022-08-03T03:51:55;23.60;99.90
45008;DHT22;30743;52.008;5.644;2022-08-03T03:54:21;23.60;99.90
45008;DHT22;30743;52.008;5.644;2022-08-03T03:56:47;23.50;99.90
45008;DHT22;30743;52.008;5.644;2022-08-03T03:59:12;23.60;99.90
45008;DHT22;30743;52.008;5.644;2022-08-03T04:01:38;23.70;99.90
45008;DHT22;30743;52.008;5.644;2022-08-03T04:04:04;23.70;99.90
45008;DHT22;30743;52.008;5.644;2022-08-03T04:06:48;23.60;99.90
45008;DHT22;30743;52.008;5.644;2022-08-03T04:09:35;23.60;99.90
45008;DHT22;30743;52.008;5.644;2022-08-03T04:12:25;23.40;99.90
45008;DHT22;30743;52.008;5.644;2022-08-03T04:14:53;23.40;99.90
45008;DHT22;30743;52.008;5.644;2022-08-03T04:17:22;23.40;99.90
45008;DHT22;30743;52.008;5.644;2022-08-03T04:19:52;23.40;99.90
45008;DHT22;30743;52.008;5.644;2022-08-03T04:22:22;23.40;99.90
45008;DHT22;30743;52.008;5.644;2022-08-03T04:24:57;23.40;99.90
45008;DHT22;30743;52.008;5.644;2022-08-03T04:27:26;23.30;99.90
45008;DHT22;30743;52.008;5.644;2022-08-03T04:29:53;23.40;99.90
45008;DHT22;30743;52.008;5.644;2022-08-03T04:32:20;23.50;99.90
45008;DHT22;30743;52.008;5.644;2022-08-03T04:34:50;23.50;99.90
45008;DHT22;30743;52.008;5.644;2022-08-03T04:37:25;23.40;99.90
45008;DHT22;30743;52.008;5.644;2022-08-03T04:39:56;23.40;99.90
45008;DHT22;30743;52.008;5.644;2022-08-03T04:42:23;23.50;99.90
45008;DHT22;30743;52.008;5.644;2022-08-03T04:44:50;23.50;99.90
45008;DHT22;30743;52.008;5.644;2022-08-03T04:47:16;23.70;99.90
45008;DHT22;30743;52.008;5.644;2022-08-03T04:49:42;23.80;99.90
45008;DHT22;30743;52.008;5.644;2022-08-03T04:52:08;23.80;99.90
45008;DHT22;30743;52.008;5.644;2022-08-03T04:54:44;23.80;99.90
45008;DHT22;30743;52.008;5.644;2022-08-03T04:57:10;23.90;99.90
45008;DHT22;30743;52.008;5.644;2022-08-03T04:59:37;23.90;99.90
45008;DHT22;30743;52.008;5.644;2022-08-03T05:02:03;24.00;99.90
45008;DHT22;30743;52.008;5.644;2022-08-03T05:04:29;24.00;99.90
45008;DHT22;30743;52.008;5.644;2022-08-03T05:06:54;23.80;99.90
45008;DHT22;30743;52.008;5.644;2022-08-03T05:09:20;23.80;99.90
45008;DHT22;30743;52.008;5.644;2022-08-03T05:11:45;23.80;99.90
45008;DHT22;30743;52.008;5.644;2022-08-03T05:14:11;23.90;99.90
45008;DHT22;30743;52.008;5.644;2022-08-03T05:16:36;23.90;99.90
45008;DHT22;30743;52.008;5.644;2022-08-03T05:19:02;23.90;99.90
45008;DHT22;30743;52.008;5.644;2022-08-03T05:21:27;23.90;99.90
45008;DHT22;30743;52.008;5.644;2022-08-03T05:23:53;23.80;99.90
45008;DHT22;30743;52.008;5.644;2022-08-03T05:26:19;24.00;99.90
45008;DHT22;30743;52.008;5.644;2022-08-03T05:28:44;24.00;99.90
45008;DHT22;30743;52.008;5.644;2022-08-03T05:31:10;24.10;99.90
45008;DHT22;30743;52.008;5.644;2022-08-03T05:33:36;24.10;99.90
45008;DHT22;30743;52.008;5.644;2022-08-03T05:36:02;24.20;99.90
45008;DHT22;30743;52.008;5.644;2022-08-03T05:38:27;24.20;99.90
45008;DHT22;30743;52.008;5.644;2022-08-03T05:40:53;24.10;99.90
45008;DHT22;30743;52.008;5.644;2022-08-03T05:43:18;24.00;99.90
45008;DHT22;30743;52.008;5.644;2022-08-03T05:45:44;24.00;99.90
45008;DHT22;30743;52.008;5.644;2022-08-03T05:48:09;23.90;99.90
45008;DHT22;30743;52.008;5.644;2022-08-03T05:50:35;24.10;99.90
45008;DHT22;30743;52.008;5.644;2022-08-03T05:53:00;24.10;99.90
45008;DHT22;30743;52.008;5.644;2022-08-03T05:55:26;24.00;99.90
45008;DHT22;30743;52.008;5.644;2022-08-03T05:57:52;24.00;99.90
45008;DHT22;30743;52.008;5.644;2022-08-03T06:00:17;24.20;99.90
45008;DHT22;30743;52.008;5.644;2022-08-03T06:02:43;24.30;99.90
45008;DHT22;30743;52.008;5.644;2022-08-03T06:05:09;24.40;99.90
45008;DHT22;30743;52.008;5.644;2022-08-03T06:07:35;24.70;99.90
45008;DHT22;30743;52.008;5.644;2022-08-03T06:10:00;24.50;99.90
45008;DHT22;30743;52.008;5.644;2022-08-03T06:12:27;24.50;99.90
45008;DHT22;30743;52.008;5.644;2022-08-03T06:14:53;24.60;99.90
45008;DHT22;30743;52.008;5.644;2022-08-03T06:17:18;24.70;99.90
45008;DHT22;30743;52.008;5.644;2022-08-03T06:19:44;24.70;99.90
45008;DHT22;30743;52.008;5.644;2022-08-03T06:22:09;24.60;99.90
45008;DHT22;30743;52.008;5.644;2022-08-03T06:24:35;24.90;99.90
45008;DHT22;30743;52.008;5.644;2022-08-03T06:27:01;25.10;99.90
45008;DHT22;30743;52.008;5.644;2022-08-03T06:29:26;24.80;99.90
45008;DHT22;30743;52.008;5.644;2022-08-03T06:31:52;24.70;99.90
45008;DHT22;30743;52.008;5.644;2022-08-03T06:34:17;24.90;99.90
45008;DHT22;30743;52.008;5.644;2022-08-03T06:36:43;25.00;99.90
45008;DHT22;30743;52.008;5.644;2022-08-03T06:39:08;25.20;99.90
45008;DHT22;30743;52.008;5.644;2022-08-03T06:41:34;25.40;99.90
45008;DHT22;30743;52.008;5.644;2022-08-03T06:43:59;25.30;99.90
45008;DHT22;30743;52.008;5.644;2022-08-03T06:46:25;25.40;99.90
45008;DHT22;30743;52.008;5.644;2022-08-03T06:48:50;25.40;99.90
45008;DHT22;30743;52.008;5.644;2022-08-03T06:51:16;25.50;99.90
45008;DHT22;30743;52.008;5.644;2022-08-03T06:53:42;25.60;99.90
45008;DHT22;30743;52.008;5.644;2022-08-03T06:56:07;25.70;99.90
45008;DHT22;30743;52.008;5.644;2022-08-03T06:58:33;25.70;99.90
45008;DHT22;30743;52.008;5.644;2022-08-03T07:00:59;25.70;99.90
45008;DHT22;30743;52.008;5.644;2022-08-03T07:03:25;25.70;99.90
45008;DHT22;30743;52.008;5.644;2022-08-03T07:05:50;25.60;99.90
45008;DHT22;30743;52.008;5.644;2022-08-03T07:08:17;25.60;99.90
45008;DHT22;30743;52.008;5.644;2022-08-03T07:10:46;25.40;99.90
45008;DHT22;30743;52.008;5.644;2022-08-03T07:13:11;25.50;99.90
45008;DHT22;30743;52.008;5.644;2022-08-03T07:15:37;25.70;99.90
45008;DHT22;30743;52.008;5.644;2022-08-03T07:18:03;25.80;99.90
45008;DHT22;30743;52.008;5.644;2022-08-03T07:20:29;25.70;99.90
45008;DHT22;30743;52.008;5.644;2022-08-03T07:22:55;25.70;99.90
45008;DHT22;30743;52.008;5.644;2022-08-03T07:25:20;25.90;99.90
45008;DHT22;30743;52.008;5.644;2022-08-03T07:27:47;25.90;99.90
45008;DHT22;30743;52.008;5.644;2022-08-03T07:30:14;26.00;99.90
45008;DHT22;30743;52.008;5.644;2022-08-03T07:32:40;26.10;99.90
45008;DHT22;30743;52.008;5.644;2022-08-03T07:35:07;26.00;99.90
45008;DHT22;30743;52.008;5.644;2022-08-03T07:37:33;26.10;99.90
45008;DHT22;30743;52.008;5.644;2022-08-03T07:40:00;26.30;99.90
45008;DHT22;30743;52.008;5.644;2022-08-03T07:42:27;26.30;99.90
45008;DHT22;30743;52.008;5.644;2022-08-03T07:44:53;26.50;99.90
45008;DHT22;30743;52.008;5.644;2022-08-03T07:47:20;26.50;99.90
45008;DHT22;30743;52.008;5.644;2022-08-03T07:49:47;26.60;99.90
45008;DHT22;30743;52.008;5.644;2022-08-03T07:52:12;26.50;99.90
45008;DHT22;30743;52.008;5.644;2022-08-03T07:54:56;26.60;99.90
45008;DHT22;30743;52.008;5.644;2022-08-03T07:57:22;26.60;99.90
45008;DHT22;30743;52.008;5.644;2022-08-03T07:59:48;26.60;99.90
45008;DHT22;30743;52.008;5.644;2022-08-03T08:02:13;27.00;99.90
45008;DHT22;30743;52.008;5.644;2022-08-03T08:04:39;27.20;99.90
45008;DHT22;30743;52.008;5.644;2022-08-03T08:07:05;27.40;99.90
45008;DHT22;30743;52.008;5.644;2022-08-03T08:09:30;27.60;99.90
45008;DHT22;30743;52.008;5.644;2022-08-03T08:11:56;27.70;99.90
45008;DHT22;30743;52.008;5.644;2022-08-03T08:14:21;27.80;99.90
45008;DHT22;30743;52.008;5.644;2022-08-03T08:16:47;27.80;99.90
45008;DHT22;30743;52.008;5.644;2022-08-03T08:19:14;27.70;99.90
45008;DHT22;30743;52.008;5.644;2022-08-03T08:21:41;27.60;99.90
45008;DHT22;30743;52.008;5.644;2022-08-03T08:24:07;27.70;99.90
45008;DHT22;30743;52.008;5.644;2022-08-03T08:26:32;27.90;99.90
45008;DHT22;30743;52.008;5.644;2022-08-03T08:28:58;28.00;99.90
45008;DHT22;30743;52.008;5.644;2022-08-03T08:31:23;27.80;99.90
45008;DHT22;30743;52.008;5.644;2022-08-03T08:33:49;27.80;99.90
45008;DHT22;30743;52.008;5.644;2022-08-03T08:36:14;27.80;99.90
45008;DHT22;30743;52.008;5.644;2022-08-03T08:38:40;27.90;99.90
45008;DHT22;30743;52.008;5.644;2022-08-03T08:41:08;28.10;99.90
45008;DHT22;30743;52.008;5.644;2022-08-03T08:43:34;28.30;99.90
45008;DHT22;30743;52.008;5.644;2022-08-03T08:45:59;28.30;99.90
45008;DHT22;30743;52.008;5.644;2022-08-03T08:48:26;28.30;99.90
45008;DHT22;30743;52.008;5.644;2022-08-03T08:50:56;28.40;99.90
45008;DHT22;30743;52.008;5.644;2022-08-03T08:53:25;28.50;99.90
45008;DHT22;30743;52.008;5.644;2022-08-03T08:55:51;28.60;99.90
45008;DHT22;30743;52.008;5.644;2022-08-03T08:58:20;28.60;99.90
45008;DHT22;30743;52.008;5.644;2022-08-03T09:00:47;28.70;99.90
45008;DHT22;30743;52.008;5.644;2022-08-03T09:03:13;28.70;99.90
45008;DHT22;30743;52.008;5.644;2022-08-03T09:05:42;28.70;99.90
45008;DHT22;30743;52.008;5.644;2022-08-03T09:08:08;28.90;99.90
45008;DHT22;30743;52.008;5.644;2022-08-03T09:10:33;29.00;99.90
45008;DHT22;30743;52.008;5.644;2022-08-03T09:12:59;29.00;99.90
45008;DHT22;30743;52.008;5.644;2022-08-03T09:15:27;29.30;99.90
45008;DHT22;30743;52.008;5.644;2022-08-03T09:17:57;29.40;99.90
45008;DHT22;30743;52.008;5.644;2022-08-03T09:20:24;29.40;99.90
45008;DHT22;30743;52.008;5.644;2022-08-03T09:23:01;29.50;99.90
45008;DHT22;30743;52.008;5.644;2022-08-03T09:25:33;29.60;99.90
45008;DHT22;30743;52.008;5.644;2022-08-03T09:28:15;29.70;99.90
45008;DHT22;30743;52.008;5.644;2022-08-03T09:30:56;29.50;99.90
45008;DHT22;30743;52.008;5.644;2022-08-03T09:33:23;29.60;99.90
45008;DHT22;30743;52.008;5.644;2022-08-03T09:35:49;30.00;99.90
45008;DHT22;30743;52.008;5.644;2022-08-03T09:38:17;30.30;99.90
45008;DHT22;30743;52.008;5.644;2022-08-03T09:40:44;30.50;99.90
45008;DHT22;30743;52.008;5.644;2022-08-03T09:43:10;30.60;99.90
45008;DHT22;30743;52.008;5.644;2022-08-03T09:45:37;30.60;99.90
45008;DHT22;30743;52.008;5.644;2022-08-03T09:48:29;30.80;99.90
45008;DHT22;30743;52.008;5.644;2022-08-03T09:50:59;30.50;99.90
45008;DHT22;30743;52.008;5.644;2022-08-03T09:53:25;30.80;99.90
45008;DHT22;30743;52.008;5.644;2022-08-03T09:55:56;31.00;99.90
45008;DHT22;30743;52.008;5.644;2022-08-03T09:58:26;31.00;99.90
45008;DHT22;30743;52.008;5.644;2022-08-03T10:03:19;31.20;99.90
45008;DHT22;30743;52.008;5.644;2022-08-03T10:05:44;31.30;99.90
45008;DHT22;30743;52.008;5.644;2022-08-03T10:08:17;31.60;99.80
45008;DHT22;30743;52.008;5.644;2022-08-03T10:10:44;31.80;99.70
45008;DHT22;30743;52.008;5.644;2022-08-03T10:13:12;31.40;98.60
45008;DHT22;30743;52.008;5.644;2022-08-03T10:15:41;31.70;98.90
45008;DHT22;30743;52.008;5.644;2022-08-03T10:18:07;31.70;97.80
45008;DHT22;30743;52.008;5.644;2022-08-03T10:20:42;31.80;99.10
45008;DHT22;30743;52.008;5.644;2022-08-03T10:23:09;32.00;98.40
45008;DHT22;30743;52.008;5.644;2022-08-03T10:25:37;32.30;98.50
45008;DHT22;30743;52.008;5.644;2022-08-03T10:28:04;32.50;97.90
45008;DHT22;30743;52.008;5.644;2022-08-03T10:30:32;32.50;97.40
45008;DHT22;30743;52.008;5.644;2022-08-03T10:33:03;32.40;97.50
45008;DHT22;30743;52.008;5.644;2022-08-03T10:35:29;32.60;97.80
45008;DHT22;30743;52.008;5.644;2022-08-03T10:38:11;32.70;97.50
45008;DHT22;30743;52.008;5.644;2022-08-03T10:40:39;32.50;96.70
45008;DHT22;30743;52.008;5.644;2022-08-03T10:43:49;32.60;95.60
45008;DHT22;30743;52.008;5.644;2022-08-03T10:46:17;32.70;95.40
45008;DHT22;30743;52.008;5.644;2022-08-03T10:48:43;32.90;95.20
45008;DHT22;30743;52.008;5.644;2022-08-03T10:51:09;33.10;95.10
45008;DHT22;30743;52.008;5.644;2022-08-03T10:53:37;33.40;95.10
45008;DHT22;30743;52.008;5.644;2022-08-03T10:56:03;33.30;95.10
45008;DHT22;30743;52.008;5.644;2022-08-03T10:58:52;33.50;95.50
45008;DHT22;30743;52.008;5.644;2022-08-03T11:01:48;33.50;94.80
45008;DHT22;30743;52.008;5.644;2022-08-03T11:06:30;33.30;94.50
45008;DHT22;30743;52.008;5.644;2022-08-03T11:09:16;33.30;94.80
45008;DHT22;30743;52.008;5.644;2022-08-03T11:11:44;33.00;94.70
45008;DHT22;30743;52.008;5.644;2022-08-03T11:14:12;32.90;93.70
45008;DHT22;30743;52.008;5.644;2022-08-03T11:16:41;33.10;94.40
45008;DHT22;30743;52.008;5.644;2022-08-03T11:19:08;33.20;94.00
45008;DHT22;30743;52.008;5.644;2022-08-03T11:21:55;33.30;93.40
45008;DHT22;30743;52.008;5.644;2022-08-03T11:38:02;33.90;91.80
45008;DHT22;30743;52.008;5.644;2022-08-03T11:40:44;34.10;91.30
45008;DHT22;30743;52.008;5.644;2022-08-03T11:46:02;34.40;91.20
45008;DHT22;30743;52.008;5.644;2022-08-03T11:48:36;34.50;89.20
45008;DHT22;30743;52.008;5.644;2022-08-03T11:51:04;34.30;90.20
45008;DHT22;30743;52.008;5.644;2022-08-03T11:53:30;34.30;90.30
45008;DHT22;30743;52.008;5.644;2022-08-03T11:56:00;34.30;88.90
45008;DHT22;30743;52.008;5.644;2022-08-03T11:58:26;34.00;89.40
45008;DHT22;30743;52.008;5.644;2022-08-03T12:00:56;33.90;89.30
45008;DHT22;30743;52.008;5.644;2022-08-03T12:03:32;34.30;90.00
45008;DHT22;30743;52.008;5.644;2022-08-03T12:05:57;34.40;90.00
45008;DHT22;30743;52.008;5.644;2022-08-03T12:10:52;34.80;87.40
45008;DHT22;30743;52.008;5.644;2022-08-03T12:13:19;34.60;86.20
45008;DHT22;30743;52.008;5.644;2022-08-03T12:16:17;34.80;86.30
45008;DHT22;30743;52.008;5.644;2022-08-03T12:18:44;34.90;86.40
45008;DHT22;30743;52.008;5.644;2022-08-03T12:21:11;35.00;85.50
45008;DHT22;30743;52.008;5.644;2022-08-03T12:23:37;34.90;83.60
45008;DHT22;30743;52.008;5.644;2022-08-03T12:26:05;34.60;83.90
45008;DHT22;30743;52.008;5.644;2022-08-03T12:28:31;34.30;85.80
45008;DHT22;30743;52.008;5.644;2022-08-03T12:31:05;34.40;87.60
45008;DHT22;30743;52.008;5.644;2022-08-03T12:33:34;34.70;85.90
45008;DHT22;30743;52.008;5.644;2022-08-03T12:36:18;35.10;86.20
45008;DHT22;30743;52.008;5.644;2022-08-03T12:39:03;35.50;88.30
45008;DHT22;30743;52.008;5.644;2022-08-03T12:41:31;35.60;83.20
45008;DHT22;30743;52.008;5.644;2022-08-03T12:43:58;35.80;83.90
45008;DHT22;30743;52.008;5.644;2022-08-03T12:46:32;35.90;83.50
45008;DHT22;30743;52.008;5.644;2022-08-03T12:49:08;35.70;82.60
45008;DHT22;30743;52.008;5.644;2022-08-03T12:51:55;35.80;83.00
45008;DHT22;30743;52.008;5.644;2022-08-03T12:54:26;36.00;84.80
45008;DHT22;30743;52.008;5.644;2022-08-03T12:57:05;36.00;82.70
45008;DHT22;30743;52.008;5.644;2022-08-03T12:59:33;36.00;82.70
45008;DHT22;30743;52.008;5.644;2022-08-03T13:01:59;36.00;84.10
45008;DHT22;30743;52.008;5.644;2022-08-03T13:04:32;36.00;82.60
45008;DHT22;30743;52.008;5.644;2022-08-03T13:07:00;36.20;83.20
45008;DHT22;30743;52.008;5.644;2022-08-03T13:09:27;36.30;83.00
45008;DHT22;30743;52.008;5.644;2022-08-03T13:12:06;36.50;85.30
45008;DHT22;30743;52.008;5.644;2022-08-03T13:14:32;36.50;84.30
45008;DHT22;30743;52.008;5.644;2022-08-03T13:16:57;36.40;82.10
45008;DHT22;30743;52.008;5.644;2022-08-03T13:19:23;36.70;83.80
45008;DHT22;30743;52.008;5.644;2022-08-03T13:21:48;36.30;85.10
45008;DHT22;30743;52.008;5.644;2022-08-03T13:24:14;36.20;85.10
45008;DHT22;30743;52.008;5.644;2022-08-03T13:26:40;36.20;85.10
45008;DHT22;30743;52.008;5.644;2022-08-03T13:29:05;36.20;84.40
45008;DHT22;30743;52.008;5.644;2022-08-03T13:31:31;36.20;84.10
45008;DHT22;30743;52.008;5.644;2022-08-03T13:33:56;36.00;84.20
45008;DHT22;30743;52.008;5.644;2022-08-03T13:36:22;35.60;84.20
45008;DHT22;30743;52.008;5.644;2022-08-03T13:38:49;35.90;87.00
45008;DHT22;30743;52.008;5.644;2022-08-03T13:41:14;36.10;86.10
45008;DHT22;30743;52.008;5.644;2022-08-03T13:43:40;36.30;85.50
45008;DHT22;30743;52.008;5.644;2022-08-03T13:46:05;36.30;85.40
45008;DHT22;30743;52.008;5.644;2022-08-03T13:48:31;36.30;86.80
45008;DHT22;30743;52.008;5.644;2022-08-03T13:50:57;35.80;84.80
45008;DHT22;30743;52.008;5.644;2022-08-03T13:53:22;36.00;85.90
45008;DHT22;30743;52.008;5.644;2022-08-03T13:55:48;36.20;86.00
45008;DHT22;30743;52.008;5.644;2022-08-03T13:58:13;36.10;84.60
45008;DHT22;30743;52.008;5.644;2022-08-03T14:00:39;36.20;85.50
45008;DHT22;30743;52.008;5.644;2022-08-03T14:03:05;36.20;86.50
45008;DHT22;30743;52.008;5.644;2022-08-03T14:05:31;36.20;86.20
45008;DHT22;30743;52.008;5.644;2022-08-03T14:07:57;36.20;87.20
45008;DHT22;30743;52.008;5.644;2022-08-03T14:10:22;36.60;86.60
45008;DHT22;30743;52.008;5.644;2022-08-03T14:12:48;36.60;85.70
45008;DHT22;30743;52.008;5.644;2022-08-03T14:15:13;36.40;85.60
45008;DHT22;30743;52.008;5.644;2022-08-03T14:17:39;36.50;86.00
45008;DHT22;30743;52.008;5.644;2022-08-03T14:20:06;36.40;85.90
45008;DHT22;30743;52.008;5.644;2022-08-03T14:22:32;36.60;86.50
45008;DHT22;30743;52.008;5.644;2022-08-03T14:24:58;36.70;85.30
45008;DHT22;30743;52.008;5.644;2022-08-03T14:27:23;36.80;84.30
45008;DHT22;30743;52.008;5.644;2022-08-03T14:29:49;37.00;86.30
45008;DHT22;30743;52.008;5.644;2022-08-03T14:32:14;37.20;85.40
45008;DHT22;30743;52.008;5.644;2022-08-03T14:34:40;37.20;84.20
45008;DHT22;30743;52.008;5.644;2022-08-03T14:37:06;37.40;84.40
45008;DHT22;30743;52.008;5.644;2022-08-03T14:39:31;37.60;83.50
45008;DHT22;30743;52.008;5.644;2022-08-03T14:41:57;37.20;83.10
45008;DHT22;30743;52.008;5.644;2022-08-03T14:44:22;37.30;84.30
45008;DHT22;30743;52.008;5.644;2022-08-03T14:46:48;37.30;84.80
45008;DHT22;30743;52.008;5.644;2022-08-03T14:49:13;37.40;84.60
45008;DHT22;30743;52.008;5.644;2022-08-03T14:51:39;37.60;84.80
45008;DHT22;30743;52.008;5.644;2022-08-03T14:54:04;37.60;84.40
45008;DHT22;30743;52.008;5.644;2022-08-03T14:56:30;37.60;83.50
45008;DHT22;30743;52.008;5.644;2022-08-03T14:58:55;37.70;84.00
45008;DHT22;30743;52.008;5.644;2022-08-03T15:01:21;37.80;83.90
45008;DHT22;30743;52.008;5.644;2022-08-03T15:03:46;37.40;83.10
45008;DHT22;30743;52.008;5.644;2022-08-03T15:06:13;37.20;81.80
45008;DHT22;30743;52.008;5.644;2022-08-03T15:08:38;37.20;84.00
45008;DHT22;30743;52.008;5.644;2022-08-03T15:11:04;37.20;84.20
45008;DHT22;30743;52.008;5.644;2022-08-03T15:13:29;37.00;84.10
45008;DHT22;30743;52.008;5.644;2022-08-03T15:15:55;36.90;83.00
45008;DHT22;30743;52.008;5.644;2022-08-03T15:18:22;37.10;84.80
45008;DHT22;30743;52.008;5.644;2022-08-03T15:20:47;36.80;82.90
45008;DHT22;30743;52.008;5.644;2022-08-03T15:23:15;37.10;83.90
45008;DHT22;30743;52.008;5.644;2022-08-03T15:25:42;37.00;83.40
45008;DHT22;30743;52.008;5.644;2022-08-03T15:28:08;37.20;82.80
45008;DHT22;30743;52.008;5.644;2022-08-03T15:30:33;37.20;82.90
45008;DHT22;30743;52.008;5.644;2022-08-03T15:33:01;37.40;83.70
45008;DHT22;30743;52.008;5.644;2022-08-03T15:35:27;37.50;83.20
45008;DHT22;30743;52.008;5.644;2022-08-03T15:37:53;37.60;81.90
45008;DHT22;30743;52.008;5.644;2022-08-03T15:40:19;37.50;81.20
45008;DHT22;30743;52.008;5.644;2022-08-03T15:42:44;37.40;81.50
45008;DHT22;30743;52.008;5.644;2022-08-03T15:45:10;37.20;80.90
45008;DHT22;30743;52.008;5.644;2022-08-03T15:47:36;37.40;81.90
45008;DHT22;30743;52.008;5.644;2022-08-03T15:50:02;37.50;82.50
45008;DHT22;30743;52.008;5.644;2022-08-03T15:52:27;37.60;81.20
45008;DHT22;30743;52.008;5.644;2022-08-03T15:54:53;37.60;80.60
45008;DHT22;30743;52.008;5.644;2022-08-03T15:57:19;37.60;81.00
45008;DHT22;30743;52.008;5.644;2022-08-03T15:59:44;37.50;80.70
45008;DHT22;30743;52.008;5.644;2022-08-03T16:02:10;37.50;80.60
45008;DHT22;30743;52.008;5.644;2022-08-03T16:04:35;37.50;81.90
45008;DHT22;30743;52.008;5.644;2022-08-03T16:07:01;37.60;82.10
45008;DHT22;30743;52.008;5.644;2022-08-03T16:09:26;37.60;81.80
45008;DHT22;30743;52.008;5.644;2022-08-03T16:11:52;37.70;81.20